Terminal Aerodrome Forecast
Issued by NWS Wakefield, VA

Home | Current Version | Previous Version | Text Only | Print | Product List | Glossary On
Versions: 1 2 3 4 5 6 7 8 9 10 11 12 13 14 15 16 17 18 19 20 21 22 23 24 25
666
FTUS41 KAKQ 272320
TAFECG
TAF
KECG 272320Z 2800/2824 19011KT P6SM FEW060
     FM280800 20008KT P6SM VCSH OVC060
     FM280900 20008KT P6SM VCSH OVC025
     FM281600 22009KT P6SM BKN035
     FM281900 22008KT P6SM BKN070=

USA.gov is the U.S. government's official web portal to all federal, state and local government web resources and services.